PWSweather.com
Personal Weather Stations
Station Observations
ICAMBRID16
ChatterisGB PE16 6AY

ChatterisGB PE16 6AY

Lat: 52.45616, Lon: 0.05771

Elevation: 17

Station Type: Davis Vantage Pro 2

https://www.chatteris.biz

Latest ConditionsUpdated 6:09:58 PM GMT Tuesday, Nov 12, 2019
Currently Today's Max Today's Min Today's Average
Temperature 45.1°F7.3°C 45.1°F7.3°C 36.7°F2.6°C 41.0°F5.0°C
Dew Point 41.2°F5.1°C 41.2°F5.1°C 34.0°F1.1°C 37.6°F3.1°C
Winds 8.9 mph W14.3 kmh W 13.0 mph -20.9 kmh - - 9.2 mph 14.8 kmh
Wind Gusts 18.0 mph29.0 kmh 28.0 mph45.1 kmh - -
Humidity 86% 90% 85% 88%
Pressure 29.36 in994.2 mb 29.44 in997.0 mb 29.29 in991.9 mb -
Precipitation - 0.03 in0.8 mm - -
Hour Temp Dew Point Humidity Winds Wind Gusts Pressure Precip Precip Rate Daily Precip Total
06:09 PM 45.1°F7.3°C 41.2°F5.1°C 86% 8.9 mph W14.3 kmh W 18.0 mph29.0 kmh 29.36 in994.2 mb 0.00 in0.0 mm 0.00 in0.0 mm 0.03 in0.8 mm
05:39 PM 44.8°F7.1°C 41.2°F5.1°C 87% 8.1 mph W13.0 kmh W 14.1 mph22.7 kmh 29.35 in993.9 mb 0.00 in0.0 mm 0.00 in0.0 mm 0.03 in0.8 mm
05:09 PM 44.6°F7.0°C 41.2°F5.1°C 88% 8.9 mph W14.3 kmh W 15.0 mph24.1 kmh 29.34 in993.6 mb 0.00 in0.0 mm 0.00 in0.0 mm 0.03 in0.8 mm
04:39 PM 44.4°F6.9°C 41.2°F5.1°C 88% 8.1 mph WNW13.0 kmh WNW 15.0 mph24.1 kmh 29.33 in993.2 mb 0.00 in0.0 mm 0.00 in0.0 mm 0.03 in0.8 mm
04:09 PM 44.6°F7.0°C 41.0°F5.0°C 87% 8.9 mph WNW14.3 kmh WNW 16.1 mph25.9 kmh 29.33 in993.2 mb 0.00 in0.0 mm 0.00 in0.0 mm 0.03 in0.8 mm
03:39 PM 44.4°F6.9°C 40.8°F4.9°C 87% 10.1 mph W16.3 kmh W 18.0 mph29.0 kmh 29.31 in992.6 mb 0.00 in0.0 mm 0.00 in0.0 mm 0.03 in0.8 mm
03:09 PM 44.4°F6.9°C 40.5°F4.7°C 86% 10.1 mph SW16.3 kmh SW 19.0 mph30.6 kmh 29.31 in992.6 mb 0.00 in0.0 mm 0.00 in0.0 mm 0.03 in0.8 mm
02:39 PM 44.8°F7.1°C 40.8°F4.9°C 86% 10.1 mph WSW16.3 kmh WSW 23.0 mph37.0 kmh 29.31 in992.6 mb 0.00 in0.0 mm 0.00 in0.0 mm 0.03 in0.8 mm
02:09 PM 44.8°F7.1°C 40.5°F4.7°C 85% 11.0 mph WSW17.7 kmh WSW 23.0 mph37.0 kmh 29.31 in992.6 mb 0.00 in0.0 mm 0.00 in0.0 mm 0.03 in0.8 mm
01:39 PM 44.8°F7.1°C 40.5°F4.7°C 85% 12.1 mph WSW19.5 kmh WSW 26.0 mph41.8 kmh 29.31 in992.6 mb 0.01 in0.3 mm 0.00 in0.0 mm 0.03 in0.8 mm
01:09 PM 44.6°F7.0°C 40.6°F4.8°C 86% 13.0 mph W20.9 kmh W 27.1 mph43.6 kmh 29.30 in992.2 mb 0.01 in0.3 mm 0.02 in0.5 mm 0.03 in0.8 mm
12:39 PM 43.5°F6.4°C 40.3°F4.6°C 88% 13.0 mph WSW20.9 kmh WSW 23.0 mph37.0 kmh 29.29 in991.9 mb 0.00 in0.0 mm 0.00 in0.0 mm 0.02 in0.5 mm
12:09 PM 42.1°F5.6°C 39.0°F3.9°C 89% 13.0 mph WSW20.9 kmh WSW 25.1 mph40.4 kmh 29.30 in992.2 mb 0.00 in0.0 mm 0.00 in0.0 mm 0.02 in0.5 mm
11:39 AM 41.4°F5.2°C 38.7°F3.7°C 90% 13.0 mph WSW20.9 kmh WSW 28.0 mph45.1 kmh 29.31 in992.6 mb 0.02 in0.5 mm 0.00 in0.0 mm 0.02 in0.5 mm
11:09 AM 41.7°F5.4°C 38.5°F3.6°C 88% 13.0 mph WSW20.9 kmh WSW 22.0 mph35.4 kmh 29.32 in992.9 mb 0.02 in0.5 mm 0.04 in1.0 mm 0.02 in0.5 mm
10:39 AM 42.6°F5.9°C 38.5°F3.6°C 85% 11.0 mph WSW17.7 kmh WSW 20.0 mph32.2 kmh 29.33 in993.2 mb 0.00 in0.0 mm 0.00 in0.0 mm 0.00 in0.0 mm
10:09 AM 42.3°F5.7°C 38.1°F3.4°C 85% 11.0 mph WSW17.7 kmh WSW 20.0 mph32.2 kmh 29.33 in993.2 mb 0.00 in0.0 mm 0.00 in0.0 mm 0.00 in0.0 mm
09:39 AM 41.4°F5.2°C 38.1°F3.4°C 88% 12.1 mph WSW19.5 kmh WSW 20.0 mph32.2 kmh 29.34 in993.6 mb 0.00 in0.0 mm 0.00 in0.0 mm 0.00 in0.0 mm
09:09 AM 39.4°F4.1°C 36.5°F2.5°C 89% 10.1 mph WSW16.3 kmh WSW 19.0 mph30.6 kmh 29.35 in993.9 mb 0.00 in0.0 mm 0.00 in0.0 mm 0.00 in0.0 mm
08:39 AM 38.1°F3.4°C 35.4°F1.9°C 90% 11.0 mph SSW17.7 kmh SSW 18.0 mph29.0 kmh 29.36 in994.2 mb 0.00 in0.0 mm 0.00 in0.0 mm 0.00 in0.0 mm
08:09 AM 37.0°F2.8°C 34.3°F1.3°C 90% 8.1 mph WSW13.0 kmh WSW 16.1 mph25.9 kmh 29.36 in994.2 mb 0.00 in0.0 mm 0.00 in0.0 mm 0.00 in0.0 mm
07:39 AM 36.7°F2.6°C 34.0°F1.1°C 90% 6.9 mph SW11.1 kmh SW 14.1 mph22.7 kmh 29.37 in994.6 mb 0.00 in0.0 mm 0.00 in0.0 mm 0.00 in0.0 mm
07:09 AM 36.9°F2.7°C 34.0°F1.1°C 89% 6.0 mph WSW9.7 kmh WSW 12.1 mph19.5 kmh 29.37 in994.6 mb 0.00 in0.0 mm 0.00 in0.0 mm 0.00 in0.0 mm
06:39 AM 37.2°F2.9°C 34.0°F1.1°C 88% 4.9 mph 7.9 kmh 11.0 mph17.7 kmh 29.38 in994.9 mb 0.00 in0.0 mm 0.00 in0.0 mm 0.00 in0.0 mm
06:09 AM 37.8°F3.2°C 34.5°F1.4°C 88% 6.0 mph W9.7 kmh W 14.1 mph22.7 kmh 29.39 in995.3 mb 0.00 in0.0 mm 0.00 in0.0 mm 0.00 in0.0 mm
05:39 AM 38.5°F3.6°C 34.9°F1.6°C 87% 8.1 mph WSW13.0 kmh WSW 15.0 mph24.1 kmh 29.39 in995.3 mb 0.00 in0.0 mm 0.00 in0.0 mm 0.00 in0.0 mm
05:09 AM 39.0°F3.9°C 35.4°F1.9°C 87% 8.1 mph WSW13.0 kmh WSW 15.0 mph24.1 kmh 29.40 in995.6 mb 0.00 in0.0 mm 0.00 in0.0 mm 0.00 in0.0 mm
04:39 AM 39.7°F4.3°C 36.0°F2.2°C 86% 8.9 mph SW14.3 kmh SW 15.0 mph24.1 kmh 29.40 in995.6 mb 0.00 in0.0 mm 0.00 in0.0 mm 0.00 in0.0 mm
04:09 AM 39.9°F4.4°C 36.3°F2.4°C 87% 8.9 mph SW14.3 kmh SW 15.0 mph24.1 kmh 29.40 in995.6 mb 0.00 in0.0 mm 0.00 in0.0 mm 0.00 in0.0 mm
03:39 AM 39.9°F4.4°C 36.3°F2.4°C 87% 8.9 mph SW14.3 kmh SW 16.1 mph25.9 kmh 29.40 in995.6 mb 0.00 in0.0 mm 0.00 in0.0 mm 0.00 in0.0 mm
03:09 AM 39.6°F4.2°C 36.3°F2.4°C 88% 8.1 mph WSW13.0 kmh WSW 17.0 mph27.4 kmh 29.41 in995.9 mb 0.00 in0.0 mm 0.00 in0.0 mm 0.00 in0.0 mm
02:39 AM 38.8°F3.8°C 36.0°F2.2°C 89% 8.1 mph SW13.0 kmh SW 15.0 mph24.1 kmh 29.42 in996.3 mb 0.00 in0.0 mm 0.00 in0.0 mm 0.00 in0.0 mm
02:09 AM 38.5°F3.6°C 35.6°F2.0°C 89% 8.1 mph WSW13.0 kmh WSW 15.0 mph24.1 kmh 29.42 in996.3 mb 0.00 in0.0 mm 0.00 in0.0 mm 0.00 in0.0 mm
01:39 AM 38.7°F3.7°C 35.8°F2.1°C 89% 6.9 mph WSW11.1 kmh WSW 12.1 mph19.5 kmh 29.43 in996.6 mb 0.00 in0.0 mm 0.00 in0.0 mm 0.00 in0.0 mm
01:09 AM 38.7°F3.7°C 35.4°F1.9°C 88% 6.0 mph SW9.7 kmh SW 12.1 mph19.5 kmh 29.43 in996.6 mb 0.00 in0.0 mm 0.00 in0.0 mm 0.00 in0.0 mm
12:39 AM 39.0°F3.9°C 35.8°F2.1°C 88% 4.9 mph WSW7.9 kmh WSW 13.0 mph20.9 kmh 29.44 in997.0 mb 0.00 in0.0 mm 0.00 in0.0 mm 0.00 in0.0 mm
12:09 AM 38.8°F3.8°C 35.6°F2.0°C 88% 8.1 mph WSW13.0 kmh WSW 14.1 mph22.7 kmh 29.44 in997.0 mb 0.00 in0.0 mm 0.00 in0.0 mm 0.00 in0.0 mm